Clarksville, New Hampshire
Current Conditions -  °F | °C
As of 12:00 AM on Sunday 26 Oct 2014 (Local Time) from CYSC Reporting Station
Overcast Overcast  
Wind Chill: 46°   Ceiling: 2400
Heat Index: 48°   Visibility: 9mi
Dew Point: 46°   Wind: 5mph
Humidity: 93%   Direction: 230°SW
Pressure: 29.4"   Gusts: NA
Location:  45.1081°N, 71.25°W
Report Text: CYSC 260400Z AUTO 23004KT 9SM SCT020 BKN024 OVC032 09/08 A2940 RMK PCPN 1.5MM PAST HR SLP958 DENSITY ALT 800FT
Loading
Personal Weather Stations






























Interactive Weather Map
Tropical Storm Tracking
New forecast layout! Learn more

10-Day Weather Forecast

Advertisements
Track Severe Weather on mobile